• Join FlightAware (Why Join?)
  • Login
  • US Flag 
11:56AM EDT


 

Airport Tracker/Info


-or-


 

Live Flight TrackerFlight Track Log ✈ KAP927 ✈ 18-May-2013 ✈ KALB - KOGS

Flight Track Log - Related Links

Times and Time Zones

All times are in EDT time to prevent confusion due to time zone crossing. See the KAP927 flight status page for this flight to view local times or setup timezone preferences in your user account.

Time Position Orientation Groundspeed Altitude Reporting Facility
EDT Latitude Longitude Course Direction KTS MPH feet Rate Location/Type
02:22PM 42.7442 -73.8367 305° West 120 138 1,500  Level Boston Center
02:23PM 42.7731 -73.8572 332° Northwest 127 146 1,900 420 Climbing Boston Center
02:24PM 42.8019 -73.8833 326° Northwest 123 142 2,400 540 Climbing Boston Center
02:25PM 42.8286 -73.9067 327° Northwest 125 144 3,000 540 Climbing Boston Center
02:26PM 42.8594 -73.9356 326° Northwest 132 152 3,500 360 Climbing Boston Center
02:27PM 42.8906 -73.9592 331° Northwest 137 158 3,800 360 Climbing Boston Center
02:28PM 42.9256 -73.9911 326° Northwest 138 159 4,300 480 Climbing Boston Center
02:29PM 42.9606 -74.0175 331° Northwest 139 160 4,800 360 Climbing Boston Center
02:30PM 42.9936 -74.0439 330° Northwest 140 161 5,100 360 Climbing Boston Center
02:31PM 43.0286 -74.0675 334° Northwest 141 162 5,600 420 Climbing Boston Center
02:32PM 43.0614 -74.0969 327° Northwest 141 162 6,000 480 Climbing Boston Center
02:33PM 43.0944 -74.1261 327° Northwest 138 159 6,600 480 Climbing Boston Center
02:34PM 43.1047 -74.1350 328° Northwest 138 159 6,700 480 Climbing Boston Center
02:34PM 43.1253 -74.1525 328° Northwest 139 160 7,100 480 Climbing Boston Center
02:35PM 43.1378 -74.1586 340° North 143 165 7,200 360 Climbing Boston Center
02:36PM 43.1706 -74.1881 327° Northwest 143 165 7,600 480 Climbing Boston Center
02:37PM 43.2056 -74.2147 331° Northwest 136 157 8,200 420 Climbing Boston Center
02:38PM 43.2386 -74.2442 327° Northwest 141 162 8,500 360 Climbing Boston Center
02:39PM 43.2694 -74.2708 328° Northwest 141 162 9,000 540 Climbing Boston Center
02:40PM 43.3003 -74.2944 331° Northwest 136 157 9,600 420 Climbing Boston Center
02:41PM 43.3311 -74.3183 331° Northwest 129 148 9,900 180 Climbing Boston Center
02:42PM 43.3661 -74.3481 328° Northwest 135 155 10,000  Climbing Boston Center
02:43PM 43.4031 -74.3778 330° Northwest 146 168 10,000  Level Boston Center
02:44PM 43.4422 -74.4075 331° Northwest 146 168 10,000  Level Boston Center
02:45PM 43.4792 -74.4403 327° Northwest 151 174 10,000  Level Boston Center
02:46PM 43.5161 -74.4728 327° Northwest 156 180 10,000  Level Boston Center
02:47PM 43.5550 -74.5028 331° Northwest 161 185 10,000  Level Boston Center
02:48PM 43.5942 -74.5328 331° Northwest 161 185 10,000  Level Boston Center
02:49PM 43.6372 -74.5689 329° Northwest 167 192 10,000 -60 Level Boston Center
02:50PM 43.6761 -74.6044 327° Northwest 167 192 9,900  Descending Boston Center
02:51PM 43.7172 -74.6347 332° Northwest 167 192 10,000  Climbing Boston Center
02:52PM 43.7564 -74.6678 329° Northwest 167 192 10,000 -60 Level Boston Center
02:53PM 43.7931 -74.7008 327° Northwest 167 192 9,900  Descending Boston Center
02:54PM 43.8322 -74.7311 331° Northwest 167 192 10,000  Climbing Boston Center
02:55PM 43.8647 -74.7639 324° Northwest 167 192 10,000  Level Boston Center
02:56PM 43.9036 -74.7972 328° Northwest 167 192 10,000  Level Boston Center
02:57PM 43.9428 -74.8306 329° Northwest 161 185 10,000 -240 Level Boston Center
02:58PM 43.9794 -74.8636 327° Northwest 161 185 9,600 -600 Descending Boston Center
02:59PM 44.0244 -74.9003 330° Northwest 166 191 8,900 -720 Descending Boston Center
03:00PM 44.0717 -74.9397 329° Northwest 178 205 8,200 -600 Descending Boston Center
03:01PM 44.1167 -74.9764 330° Northwest 183 211 7,700 -660 Descending Boston Center
03:02PM 44.1617 -75.0186 326° Northwest 183 211 6,900 -720 Descending Boston Center
03:03PM 44.2067 -75.0556 330° Northwest 183 211 6,300 -600 Descending Boston Center
03:04PM 44.2494 -75.0922 328° Northwest 183 211 5,800 -660 Descending Boston Center
03:05PM 44.2944 -75.1261 332° Northwest 183 211 5,000 -660 Descending Boston Center
03:06PM 44.3375 -75.1656 327° Northwest 183 211 4,500 -540 Descending Boston Center
03:07PM 44.3783 -75.1967 331° Northwest 183 211 4,000 -480 Descending Boston Center
03:08PM 44.4211 -75.2336 328° Northwest 183 211 3,600 -420 Descending Boston Center
03:09PM 44.4622 -75.2586 337° Northwest 172 198 3,200 -360 Descending Boston Center
03:10PM 44.5053 -75.2928 330° Northwest 172 198 2,900 -300 Descending Boston Center
03:12PM 44.5635 -75.3574 322° Northwest  Level FlightAware Approximate
03:19PM 44.6667 -75.4500 325° Northwest  Level FlightAware Approximate
03:20PM 44.6819 -75.4655 325° Northwest  Level Estimated
03:21PM 44.6819 -75.4655 325° Northwest  Level Estimated
03:22PM 44.6819 -75.4655 325° Northwest  Level Estimated
03:23PM 44.6819 -75.4655 325° Northwest  Level Estimated
03:24PM 44.6819 -75.4655 325° Northwest  Level Estimated
03:25PM 44.6819 -75.4655 325° Northwest  Level Estimated
03:26PM 44.6819 -75.4655 325° Northwest  Level Estimated
03:27PM 44.6819 -75.4655 325° Northwest  Level Estimated
03:28PM 44.6819 -75.4655 325° Northwest  Level Estimated
03:29PM 44.6819 -75.4655 325° Northwest  Level Estimated
03:30PM 44.6819 -75.4655 325° Northwest  Level Estimated
03:31PM 44.6819 -75.4655 325° Northwest  Level Estimated
03:32PM 44.6819 -75.4655 325° Northwest  Level Estimated
03:33PM 44.6819 -75.4655 325° Northwest  Level Estimated